Time;durP1;ratioP1;P1;durP2;ratioP2;P2;SDS_P1;SDS_P2;PMS_P1;PMS_P2;Temp;Humidity;BMP_temperature;BMP_pressure;BME280_temperature;BME280_humidity;BME280_pressure;Samples;Min_cycle;Max_cycle;Signal;HPM_P1;HPM_P2
2024/01/29 00:05:04;;;;;;;9.32;2.05;;;;;;;12.66;62.93;102010.09;10578324;27;20057;-77
2024/01/29 00:10:26;;;;;;;5.50;2.00;;;;;;;11.87;92.62;102021.06;10585104;27;20050;-78
2024/01/29 00:15:51;;;;;;;5.60;2.47;;;;;;;11.83;91.98;102012.94;10549437;27;20036;-77
2024/01/29 00:21:13;;;;;;;4.05;2.08;;;;;;;12.04;73.70;102012.72;10583642;27;20046;-78
2024/01/29 00:26:38;;;;;;;7.20;1.77;;;;;;;12.10;64.29;102027.00;10603094;27;20134;-77
2024/01/29 00:32:02;;;;;;;5.05;2.28;;;;;;;12.14;62.10;102025.38;10561642;27;20618;-77
2024/01/29 00:37:26;;;;;;;5.65;1.70;;;;;;;11.98;53.68;102024.91;10570220;27;20048;-77
2024/01/29 00:42:48;;;;;;;4.78;1.60;;;;;;;11.94;50.91;102035.38;10586518;27;20052;-77
2024/01/29 00:48:12;;;;;;;6.13;1.88;;;;;;;12.00;54.89;102032.91;10576884;27;20053;-77
2024/01/29 00:53:35;;;;;;;5.10;1.58;;;;;;;11.91;55.15;102037.91;10561691;27;20523;-78
2024/01/29 00:58:57;;;;;;;2.67;1.38;;;;;;;11.81;54.58;102047.31;10571633;27;20047;-77
2024/01/29 01:04:21;;;;;;;4.97;1.88;;;;;;;11.77;50.70;102045.41;10547416;27;20055;-77
2024/01/29 01:09:44;;;;;;;4.93;1.27;;;;;;;11.74;47.31;102044.44;10578622;27;20495;-77
2024/01/29 01:15:07;;;;;;;3.70;1.30;;;;;;;11.73;45.88;102035.56;10539951;27;20083;-78
2024/01/29 01:20:31;;;;;;;3.75;1.35;;;;;;;11.62;47.63;102054.59;10569738;27;20059;-77
2024/01/29 01:25:53;;;;;;;5.53;1.83;;;;;;;11.73;46.33;102055.81;10561288;27;20047;-77
2024/01/29 01:31:16;;;;;;;5.53;1.77;;;;;;;11.73;48.15;102059.38;10565354;27;20062;-77
2024/01/29 01:36:40;;;;;;;2.03;1.17;;;;;;;11.57;46.29;102062.34;10579472;28;20047;-78
2024/01/29 01:42:04;;;;;;;3.22;1.80;;;;;;;11.62;45.95;102051.94;10586012;28;20495;-78
2024/01/29 01:47:27;;;;;;;1.98;1.52;;;;;;;11.62;46.92;102042.25;10610757;27;20043;-78
2024/01/29 01:52:51;;;;;;;4.72;1.60;;;;;;;11.55;47.17;102054.38;10637993;27;20061;-77
2024/01/29 01:58:18;;;;;;;2.08;0.93;;;;;;;11.56;46.55;102040.31;10600698;27;20263;-77
2024/01/29 02:03:42;;;;;;;5.75;1.42;;;;;;;11.64;46.15;102052.88;10623313;27;20060;-78
2024/01/29 02:09:07;;;;;;;9.05;1.95;;;;;;;11.61;48.14;102051.06;10611419;27;20130;-77
2024/01/29 02:14:29;;;;;;;5.57;1.20;;;;;;;11.56;49.24;102049.97;10598616;27;20844;-77
2024/01/29 02:19:52;;;;;;;5.88;1.40;;;;;;;11.64;48.29;102039.66;10634510;27;20040;-77
2024/01/29 02:25:16;;;;;;;3.75;1.50;;;;;;;11.63;46.76;102051.06;10621347;27;20106;-78
2024/01/29 02:30:38;;;;;;;4.07;1.27;;;;;;;11.34;44.30;102042.22;10605142;27;20516;-77
2024/01/29 02:36:01;;;;;;;3.88;1.10;;;;;;;11.24;43.15;102033.06;10629980;27;20049;-77
2024/01/29 02:41:25;;;;;;;5.32;1.73;;;;;;;11.55;41.80;102033.22;10595091;27;20047;-77
2024/01/29 02:46:47;;;;;;;3.80;1.90;;;;;;;11.81;40.77;102012.03;10604107;27;20048;-77
2024/01/29 02:52:09;;;;;;;4.78;1.23;;;;;;;11.77;41.02;102005.72;10579472;27;20054;-77
2024/01/29 02:57:33;;;;;;;4.30;1.40;;;;;;;11.75;41.50;101991.53;10558282;27;20131;-77
2024/01/29 03:02:57;;;;;;;2.92;1.52;;;;;;;11.55;42.80;101982.97;10574926;27;20050;-77
2024/01/29 03:08:19;;;;;;;4.70;1.25;;;;;;;11.54;44.85;101993.53;10597881;27;20062;-77
2024/01/29 03:13:44;;;;;;;4.03;1.30;;;;;;;11.56;43.88;101990.06;10571906;27;20047;-78
2024/01/29 03:19:07;;;;;;;3.25;1.10;;;;;;;11.62;45.43;101997.28;10573978;27;20055;-77
2024/01/29 03:24:29;;;;;;;4.15;1.42;;;;;;;11.90;43.38;101989.38;10584153;27;20051;-77
2024/01/29 03:29:53;;;;;;;3.47;1.17;;;;;;;12.11;41.39;101985.56;10570571;27;20391;-78
2024/01/29 03:35:16;;;;;;;2.13;1.27;;;;;;;12.17;40.79;101994.59;10584686;27;20043;-77
2024/01/29 03:40:38;;;;;;;2.58;1.60;;;;;;;12.38;45.38;101989.00;10578860;27;20547;-77
2024/01/29 03:46:02;;;;;;;2.50;1.20;;;;;;;12.06;43.66;101997.78;10589951;27;20066;-77
2024/01/29 03:51:24;;;;;;;3.25;1.33;;;;;;;11.84;42.58;101978.59;10575657;28;20092;-78
2024/01/29 03:56:47;;;;;;;3.72;1.67;;;;;;;11.87;41.06;101983.09;10552900;28;20051;-78
2024/01/29 04:02:11;;;;;;;2.95;1.65;;;;;;;11.82;42.41;102001.47;10569205;27;20058;-78
2024/01/29 04:07:34;;;;;;;3.85;1.10;;;;;;;11.88;42.71;101999.00;10547287;28;20051;-77
2024/01/29 04:12:56;;;;;;;3.42;1.52;;;;;;;11.95;40.55;102005.38;10551033;28;20130;-78
2024/01/29 04:18:20;;;;;;;3.97;1.35;;;;;;;11.93;37.77;102007.09;10561969;28;20128;-78
2024/01/29 04:23:43;;;;;;;2.78;1.63;;;;;;;12.03;37.57;102000.31;10553994;28;20617;-78
2024/01/29 04:29:05;;;;;;;3.53;1.30;;;;;;;11.87;37.95;102015.75;10560594;28;20681;-77
2024/01/29 04:34:29;;;;;;;1.77;1.10;;;;;;;11.84;38.09;102012.09;10562900;28;20042;-78
2024/01/29 04:39:53;;;;;;;4.68;1.33;;;;;;;11.84;38.04;101989.19;10573948;28;20514;-77
2024/01/29 04:45:15;;;;;;;2.20;0.70;;;;;;;12.02;36.63;101986.19;10578233;27;20138;-77
2024/01/29 04:50:39;;;;;;;1.98;1.02;;;;;;;12.19;38.29;101963.75;10608680;27;20046;-78
2024/01/29 04:56:02;;;;;;;13.85;4.18;;;;;;;12.25;38.98;102006.28;10610761;27;20570;-78
2024/01/29 05:01:25;;;;;;;3.63;1.15;;;;;;;12.21;34.56;102003.50;10612764;27;20051;-76
2024/01/29 05:06:49;;;;;;;8.82;2.28;;;;;;;12.31;34.80;102013.50;10629017;27;20035;-78
2024/01/29 05:12:11;;;;;;;3.55;0.98;;;;;;;12.27;35.13;102009.00;10639229;27;20051;-78
2024/01/29 05:17:34;;;;;;;6.45;2.13;;;;;;;12.04;36.45;102018.00;10625574;27;20111;-77
2024/01/29 05:22:58;;;;;;;4.43;1.70;;;;;;;12.09;37.07;102019.03;10638437;27;20058;-78
2024/01/29 05:28:20;;;;;;;2.83;1.52;;;;;;;12.19;36.54;102022.00;10622432;27;20134;-78
2024/01/29 05:33:43;;;;;;;5.50;1.65;;;;;;;12.38;37.91;102026.06;10603502;27;20042;-77
2024/01/29 05:39:07;;;;;;;4.93;1.42;;;;;;;12.51;39.94;102022.91;10612370;27;20050;-78
2024/01/29 05:44:29;;;;;;;4.32;1.48;;;;;;;12.36;40.98;102033.06;10628437;27;20051;-78
2024/01/29 05:49:51;;;;;;;4.90;2.42;;;;;;;12.48;41.29;102021.91;10593449;28;20043;-77
2024/01/29 05:55:16;;;;;;;5.13;2.25;;;;;;;12.69;37.68;102033.13;10528448;28;20055;-78
2024/01/29 06:00:38;;;;;;;5.68;1.75;;;;;;;12.70;37.26;102029.63;10563394;28;20046;-78
2024/01/29 06:06:01;;;;;;;5.45;2.58;;;;;;;12.68;36.99;102032.22;10561058;28;20165;-78
2024/01/29 06:11:25;;;;;;;1.58;0.88;;;;;;;12.72;38.07;102043.81;10540732;28;20105;-77
2024/01/29 06:16:47;;;;;;;5.45;1.92;;;;;;;12.72;38.79;102049.13;10585442;27;20051;-78
2024/01/29 06:22:10;;;;;;;4.82;1.67;;;;;;;12.87;39.18;102043.31;10590154;27;20047;-77
2024/01/29 06:27:34;;;;;;;8.05;4.72;;;;;;;12.98;39.79;102048.06;10602366;27;20040;-77
2024/01/29 06:32:57;;;;;;;3.40;1.85;;;;;;;13.08;41.05;102043.88;10564727;27;20524;-77
2024/01/29 06:38:19;;;;;;;5.90;2.35;;;;;;;12.89;38.53;102042.50;10558463;27;20047;-77
2024/01/29 06:43:43;;;;;;;6.93;2.75;;;;;;;13.05;38.20;102031.47;10543507;28;20553;-77
2024/01/29 06:49:07;;;;;;;1.88;1.55;;;;;;;13.15;39.39;102067.09;10582426;27;20051;-77
2024/01/29 06:54:29;;;;;;;3.75;1.77;;;;;;;13.25;38.25;102068.22;10571672;27;20048;-77
2024/01/29 06:59:53;;;;;;;6.10;2.80;;;;;;;13.87;37.57;102053.81;10593388;27;20544;-78
2024/01/29 07:05:16;;;;;;;8.07;4.15;;;;;;;13.60;38.39;102048.75;10600479;27;20103;-77
2024/01/29 07:10:39;;;;;;;5.18;2.42;;;;;;;14.03;38.16;102052.41;10590076;27;20053;-78
2024/01/29 07:16:03;;;;;;;3.83;1.95;;;;;;;13.89;39.05;102049.44;10605960;27;20047;-77
2024/01/29 07:21:26;;;;;;;3.67;3.30;;;;;;;15.86;35.94;102047.91;10614248;27;20050;-78
2024/01/29 07:26:49;;;;;;;3.47;2.00;;;;;;;15.45;37.81;102041.00;10627598;27;20101;-77
2024/01/29 07:32:21;;;;;;;4.40;3.53;;;;;;;13.78;44.21;102062.50;10636728;27;20448;-78
2024/01/29 07:37:44;;;;;;;5.90;1.85;;;;;;;13.79;41.71;102068.66;10610598;27;20043;-77
2024/01/29 07:43:07;;;;;;;2.78;1.38;;;;;;;14.55;40.45;102063.31;10621719;27;20103;-78
2024/01/29 07:48:31;;;;;;;8.52;2.35;;;;;;;13.93;42.70;102096.44;10622115;27;20047;-78
2024/01/29 07:53:54;;;;;;;6.82;4.40;;;;;;;14.04;41.32;102086.97;10606163;27;20058;-77
2024/01/29 07:59:16;;;;;;;4.53;3.72;;;;;;;15.27;39.24;102078.88;10600781;27;20043;-77
2024/01/29 08:04:40;;;;;;;4.45;3.20;;;;;;;13.99;42.58;102107.19;10593009;27;20047;-77
2024/01/29 08:10:03;;;;;;;5.70;2.60;;;;;;;12.53;50.11;102092.75;10609840;27;20039;-75
2024/01/29 08:15:28;;;;;;;5.13;2.83;;;;;;;12.20;55.05;102076.75;10596679;27;20047;-77
2024/01/29 08:20:52;;;;;;;7.30;2.55;;;;;;;12.72;54.70;102088.84;10605220;27;20075;-77
2024/01/29 08:26:14;;;;;;;7.97;3.75;;;;;;;12.87;51.27;102097.22;10604575;27;20488;-77
2024/01/29 08:31:38;;;;;;;8.52;4.47;;;;;;;11.96;67.96;102110.38;10590444;27;20096;-77
2024/01/29 08:37:02;;;;;;;8.38;4.90;;;;;;;11.08;91.77;102096.84;10589615;27;20426;-77
2024/01/29 08:42:24;;;;;;;3.25;2.25;;;;;;;11.29;91.93;102075.53;10555558;27;20047;-76
2024/01/29 08:47:47;;;;;;;6.10;2.30;;;;;;;11.57;83.09;102072.94;10566413;28;20116;-76
2024/01/29 08:53:11;;;;;;;6.10;2.40;;;;;;;12.36;65.76;102070.16;10545284;28;20468;-76
2024/01/29 08:58:33;;;;;;;6.90;2.35;;;;;;;12.65;60.15;102057.75;10556563;28;20035;-77
2024/01/29 09:03:55;;;;;;;7.45;2.10;;;;;;;13.11;58.07;102062.53;10556527;27;20078;-76
2024/01/29 09:09:20;;;;;;;5.60;2.03;;;;;;;13.47;54.51;102054.63;10565486;27;20073;-77
2024/01/29 09:14:42;;;;;;;3.25;1.45;;;;;;;14.79;48.65;102064.66;10549587;27;20423;-76
2024/01/29 09:20:06;;;;;;;6.38;1.98;;;;;;;13.90;47.82;102059.22;10568045;27;20097;-77
2024/01/29 09:25:29;;;;;;;4.47;1.83;;;;;;;13.55;47.82;102056.63;10549989;27;20051;-75
2024/01/29 09:30:52;;;;;;;6.43;2.20;;;;;;;13.43;47.39;102064.28;10537592;28;20051;-76
2024/01/29 09:36:14;;;;;;;4.82;2.22;;;;;;;13.71;46.03;102041.06;10549210;28;20407;-76
2024/01/29 09:41:39;;;;;;;1.42;1.17;;;;;;;15.24;42.46;102038.00;10557123;28;20052;-75
2024/01/29 09:47:03;;;;;;;9.98;5.65;;;;;;;15.98;40.59;102025.88;10560645;27;20132;-77
2024/01/29 09:52:26;;;;;;;3.90;2.03;;;;;;;15.67;39.34;102019.22;10556870;28;20554;-77
2024/01/29 09:57:51;;;;;;;6.97;2.13;;;;;;;18.94;33.79;102022.03;10560441;28;20054;-77
2024/01/29 10:03:21;;;;;;;5.05;2.17;;;;;;;16.50;35.86;102027.44;10532876;28;20071;-76
2024/01/29 10:08:46;;;;;;;4.13;1.55;;;;;;;16.49;34.82;101998.09;10547450;28;20047;-75
2024/01/29 10:14:10;;;;;;;10.02;1.90;;;;;;;15.95;35.91;101997.41;10549033;28;20063;-77
2024/01/29 10:19:38;;;;;;;3.88;1.67;;;;;;;15.38;37.27;101996.53;10563539;28;20036;-77
2024/01/29 10:25:02;;;;;;;6.07;1.48;;;;;;;15.91;35.82;102011.59;10546859;27;20042;-76
2024/01/29 10:30:26;;;;;;;4.60;1.63;;;;;;;16.15;37.52;101991.44;10564214;27;20672;-77
2024/01/29 10:35:49;;;;;;;5.05;1.73;;;;;;;15.32;41.55;101996.44;10563296;27;20047;-75
2024/01/29 10:41:15;;;;;;;7.07;1.98;;;;;;;14.28;44.60;101997.19;10563919;27;20052;-77
2024/01/29 10:46:40;;;;;;;6.93;2.20;;;;;;;14.74;40.07;101971.53;10563665;27;20140;-76
2024/01/29 10:52:04;;;;;;;7.55;2.53;;;;;;;15.22;39.77;101965.25;10578288;27;20047;-75
2024/01/29 10:57:29;;;;;;;5.63;2.63;;;;;;;14.33;42.84;101955.66;10563735;27;20125;-76
2024/01/29 11:02:54;;;;;;;7.18;3.35;;;;;;;13.27;47.13;101979.88;10610507;27;20103;-77
2024/01/29 11:08:24;;;;;;;8.57;4.55;;;;;;;13.39;46.75;101969.56;10607332;28;20053;-76
2024/01/29 11:13:46;;;;;;;5.05;2.30;;;;;;;14.41;44.08;101966.47;10573573;27;20043;-76
2024/01/29 11:19:11;;;;;;;5.38;3.08;;;;;;;14.56;42.41;101952.59;10601252;28;20141;-76
2024/01/29 11:24:34;;;;;;;5.60;2.88;;;;;;;14.27;44.34;101957.31;10604053;27;20047;-77
2024/01/29 11:29:57;;;;;;;6.50;2.75;;;;;;;13.82;44.49;101957.25;10591766;27;20061;-76
2024/01/29 11:35:23;;;;;;;5.47;2.88;;;;;;;14.35;39.18;101953.06;10641020;27;20432;-76
2024/01/29 11:40:46;;;;;;;7.97;3.63;;;;;;;14.97;37.87;101943.56;10605233;27;20800;-77
2024/01/29 11:46:10;;;;;;;2.60;1.75;;;;;;;16.00;37.96;101956.66;10563543;27;1909473;-76
2024/01/29 11:51:34;;;;;;;5.45;3.20;;;;;;;15.53;38.73;101949.81;10609571;27;20047;-77
2024/01/29 11:56:57;;;;;;;4.28;2.10;;;;;;;14.92;38.79;101933.72;10625852;27;20051;-76
2024/01/29 12:02:19;;;;;;;8.82;4.30;;;;;;;14.45;39.17;101935.53;10612219;27;20622;-76
2024/01/29 12:07:43;;;;;;;6.68;2.03;;;;;;;14.62;39.33;101921.72;10591823;27;20047;-77
2024/01/29 12:13:12;;;;;;;3.83;1.40;;;;;;;14.39;39.08;101943.41;10564190;27;20054;-76
2024/01/29 12:18:35;;;;;;;7.63;3.33;;;;;;;14.14;39.70;101923.41;10606001;27;20039;-76
2024/01/29 12:23:59;;;;;;;5.00;2.75;;;;;;;15.04;39.02;101920.63;10586692;27;20055;-78
2024/01/29 12:29:22;;;;;;;5.72;1.83;;;;;;;15.33;37.99;101927.31;10613846;27;20113;-77
2024/01/29 12:34:45;;;;;;;13.80;4.47;;;;;;;14.36;38.68;101910.59;10602207;27;20502;-77
2024/01/29 12:40:17;;;;;;;6.22;2.05;;;;;;;14.50;38.96;101902.91;10607188;27;20050;-76
2024/01/29 12:45:41;;;;;;;6.93;3.22;;;;;;;13.98;40.69;101931.94;10588924;27;20101;-76
2024/01/29 12:51:05;;;;;;;6.18;2.17;;;;;;;13.74;40.97;101927.91;10559437;28;20056;-80
2024/01/29 12:56:30;;;;;;;10.75;2.28;;;;;;;13.60;40.68;101924.03;10556607;28;20043;-77
2024/01/29 13:01:53;;;;;;;3.58;2.05;;;;;;;13.29;39.58;101903.91;10537021;27;20051;-76
2024/01/29 13:07:16;;;;;;;5.63;2.13;;;;;;;13.82;40.07;101917.44;10549546;28;20541;-76
2024/01/29 13:12:40;;;;;;;8.52;5.30;;;;;;;12.82;50.68;101920.38;10517281;28;20039;-77
2024/01/29 13:18:02;;;;;;;14.73;6.50;;;;;;;12.64;48.48;101923.47;10546838;28;20059;-78
2024/01/29 13:23:25;;;;;;;8.00;3.72;;;;;;;13.05;50.44;101895.34;10546986;28;20047;-77
2024/01/29 13:28:49;;;;;;;12.80;4.75;;;;;;;13.55;56.70;101899.19;10538185;28;20079;-77
2024/01/29 13:34:19;;;;;;;11.35;4.32;;;;;;;13.94;54.06;101888.50;10543403;28;20044;-80
2024/01/29 13:39:42;;;;;;;7.05;2.85;;;;;;;14.24;50.00;101888.22;10531859;28;20048;-80
2024/01/29 13:45:08;;;;;;;6.20;2.70;;;;;;;13.99;46.31;101897.44;10561954;28;20495;-76
2024/01/29 13:50:30;;;;;;;4.43;1.65;;;;;;;13.47;44.93;101906.06;10586080;28;20085;-76
2024/01/29 13:55:53;;;;;;;10.98;4.63;;;;;;;13.45;48.08;101900.75;10585264;28;20158;-75
2024/01/29 14:01:18;;;;;;;11.02;2.90;;;;;;;13.68;50.32;101858.78;10600462;28;20554;-76
2024/01/29 14:06:40;;;;;;;9.98;4.63;;;;;;;13.65;53.06;101887.03;10584654;28;20399;-77
2024/01/29 14:12:03;;;;;;;10.48;4.80;;;;;;;12.85;66.35;101899.28;10591870;28;20051;-78
2024/01/29 14:17:27;;;;;;;23.13;7.78;;;;;;;11.79;83.34;101924.66;10571090;28;20058;-73
2024/01/29 14:22:56;;;;;;;28.23;16.48;;;;;;;9.16;90.57;101909.28;10588209;28;20134;-73
2024/01/29 14:28:18;;;;;;;12.13;6.47;;;;;;;8.52;100.00;101887.34;10598610;28;20130;-74
2024/01/29 14:33:43;;;;;;;11.15;6.63;;;;;;;8.23;100.00;101900.13;10584255;28;20047;-75
2024/01/29 14:39:05;;;;;;;12.95;7.40;;;;;;;8.24;100.00;101903.66;10581571;27;20064;-74
2024/01/29 14:44:28;;;;;;;10.85;5.78;;;;;;;8.42;100.00;101914.09;10594900;27;20108;-74
2024/01/29 14:49:52;;;;;;;22.05;10.98;;;;;;;7.94;100.00;101926.88;10585373;27;20441;-75
2024/01/29 14:55:15;;;;;;;13.00;7.72;;;;;;;8.36;100.00;101930.53;10592263;27;20054;-75
2024/01/29 15:00:38;;;;;;;9.55;4.97;;;;;;;8.63;100.00;101960.66;10620025;27;20399;-75
2024/01/29 15:06:02;;;;;;;17.17;11.57;;;;;;;8.41;100.00;101947.41;10590625;27;20077;-74
2024/01/29 15:11:25;;;;;;;18.95;16.63;;;;;;;8.03;100.00;101914.13;10604737;27;20116;-75
2024/01/29 15:16:58;;;;;;;14.13;6.72;;;;;;;8.30;100.00;101915.38;10606449;27;20042;-74
2024/01/29 15:22:21;;;;;;;21.45;13.95;;;;;;;8.74;100.00;101906.72;10580988;27;20055;-73
2024/01/29 15:27:44;;;;;;;16.85;8.90;;;;;;;9.10;100.00;101903.78;10603201;27;20035;-73
2024/01/29 15:33:07;;;;;;;7.00;4.57;;;;;;;9.50;100.00;101901.88;10614754;27;20039;-73
2024/01/29 15:38:31;;;;;;;11.95;6.60;;;;;;;9.42;100.00;101912.94;10618856;27;20046;-73
2024/01/29 15:43:53;;;;;;;8.35;3.53;;;;;;;9.53;100.00;101896.69;10591568;27;20058;-74
2024/01/29 15:49:16;;;;;;;4.32;2.88;;;;;;;9.47;100.00;101912.28;10575489;27;20399;-74
2024/01/29 15:54:40;;;;;;;7.00;5.68;;;;;;;9.69;100.00;101918.38;10586418;27;20058;-74
2024/01/29 16:00:04;;;;;;;8.48;4.90;;;;;;;9.78;100.00;101905.53;10604073;27;20051;-75
2024/01/29 16:05:27;;;;;;;11.95;7.18;;;;;;;9.94;100.00;101908.78;10573771;27;20070;-74
2024/01/29 16:10:51;;;;;;;6.72;4.13;;;;;;;10.17;100.00;101890.28;10577996;27;20057;-72
2024/01/29 16:16:14;;;;;;;12.57;4.93;;;;;;;10.46;100.00;101873.69;10588198;27;20141;-73
2024/01/29 16:21:36;;;;;;;10.27;6.03;;;;;;;10.67;91.76;101879.72;10603254;27;20039;-73
2024/01/29 16:27:00;;;;;;;5.30;2.67;;;;;;;10.54;83.94;101888.06;10594622;27;20043;-73
2024/01/29 16:32:23;;;;;;;5.97;4.43;;;;;;;10.58;90.83;101900.50;10607155;27;20062;-73
2024/01/29 16:37:45;;;;;;;6.68;4.07;;;;;;;10.85;95.32;101881.16;10581552;27;20095;-72
2024/01/29 16:43:09;;;;;;;5.68;2.22;;;;;;;10.98;91.49;101905.38;10586881;27;20507;-73
2024/01/29 16:48:32;;;;;;;4.05;1.73;;;;;;;10.75;83.18;101896.72;10585573;27;20082;-73
2024/01/29 16:53:54;;;;;;;8.13;4.47;;;;;;;10.81;81.54;101903.94;10601522;27;20047;-73
2024/01/29 16:59:18;;;;;;;5.63;2.83;;;;;;;11.02;79.62;101872.94;10579932;27;20039;-74
2024/01/29 17:04:41;;;;;;;12.55;5.75;;;;;;;11.27;87.66;101881.63;10586398;27;20039;-73
2024/01/29 17:10:04;;;;;;;8.32;4.15;;;;;;;11.35;87.01;101880.09;10540204;27;20051;-73
2024/01/29 17:15:28;;;;;;;9.00;5.97;;;;;;;11.29;81.99;101901.94;10584304;27;20083;-73
2024/01/29 17:20:51;;;;;;;7.43;4.15;;;;;;;11.04;86.98;101889.72;10585671;27;20050;-73
2024/01/29 17:26:13;;;;;;;8.68;6.15;;;;;;;11.24;83.58;101900.00;10585874;27;20107;-73
2024/01/29 17:31:39;;;;;;;8.63;4.30;;;;;;;11.13;84.78;101904.97;10579965;27;20547;-73
2024/01/29 17:37:02;;;;;;;8.90;6.22;;;;;;;10.96;90.71;101896.47;10580561;27;20046;-74
2024/01/29 17:42:24;;;;;;;9.80;6.60;;;;;;;10.99;93.29;101906.28;10594568;28;20039;-74
2024/01/29 17:47:48;;;;;;;9.98;6.00;;;;;;;11.25;76.48;101884.19;10533579;28;20044;-74
2024/01/29 17:53:11;;;;;;;13.55;5.53;;;;;;;11.08;81.02;101901.28;10534687;28;20059;-74
2024/01/29 17:58:33;;;;;;;10.80;6.47;;;;;;;11.12;81.76;101914.63;10517004;28;20048;-75
2024/01/29 18:03:57;;;;;;;7.72;5.20;;;;;;;11.28;83.70;101899.28;10550815;28;20523;-74
2024/01/29 18:09:20;;;;;;;11.05;3.38;;;;;;;11.45;99.69;101937.69;10545955;28;20092;-74
2024/01/29 18:14:44;;;;;;;8.52;3.08;;;;;;;11.52;100.00;101930.00;10563280;28;20065;-73
2024/01/29 18:20:09;;;;;;;8.57;3.85;;;;;;;11.45;100.00;101940.34;10553892;28;20054;-73
2024/01/29 18:25:32;;;;;;;9.68;4.32;;;;;;;11.35;90.64;101930.34;10582591;28;20051;-74
2024/01/29 18:30:55;;;;;;;13.05;4.88;;;;;;;11.23;75.51;101928.19;10564128;28;20135;-74
2024/01/29 18:36:19;;;;;;;6.25;4.05;;;;;;;11.37;83.04;101921.59;10578792;28;20048;-74
2024/01/29 18:41:42;;;;;;;9.88;5.30;;;;;;;11.24;86.35;101894.72;10553651;28;20519;-74
2024/01/29 18:47:04;;;;;;;8.90;5.82;;;;;;;11.14;89.72;101920.88;10602624;27;20425;-74
2024/01/29 18:52:29;;;;;;;11.93;5.97;;;;;;;11.20;89.75;101909.59;10585295;27;20047;-73
2024/01/29 18:57:51;;;;;;;6.65;3.35;;;;;;;11.29;77.45;101906.34;10605747;27;20108;-74
2024/01/29 19:03:14;;;;;;;8.35;4.35;;;;;;;11.10;77.27;101897.81;10609000;27;20487;-74
2024/01/29 19:08:38;;;;;;;6.88;5.50;;;;;;;11.29;75.45;101893.16;10601080;27;20492;-73
2024/01/29 19:14:01;;;;;;;8.80;3.92;;;;;;;11.47;80.66;101880.47;10554563;28;20102;-73
2024/01/29 19:19:24;;;;;;;14.45;8.13;;;;;;;11.20;94.58;101883.16;10586825;27;20047;-74
2024/01/29 19:24:48;;;;;;;12.38;6.72;;;;;;;11.24;100.00;101898.25;10609691;27;20041;-75
2024/01/29 19:30:14;;;;;;;11.60;5.13;;;;;;;11.11;92.70;101885.50;10593653;27;20047;-74
2024/01/29 19:35:37;;;;;;;13.60;5.88;;;;;;;11.28;90.89;101888.69;10605489;27;20047;-75
2024/01/29 19:41:02;;;;;;;11.07;5.05;;;;;;;11.12;96.59;101898.78;10624409;27;20042;-76
2024/01/29 19:46:26;;;;;;;8.98;3.97;;;;;;;10.90;92.45;101896.28;10596424;27;20050;-75
2024/01/29 19:51:50;;;;;;;11.70;4.68;;;;;;;10.97;87.56;101894.75;10561409;28;20035;-75
2024/01/29 19:57:15;;;;;;;8.75;5.95;;;;;;;11.13;100.00;101887.38;10559770;28;20040;-73
2024/01/29 20:02:39;;;;;;;14.32;6.93;;;;;;;10.17;100.00;101914.03;10574568;28;20052;-74
2024/01/29 20:08:02;;;;;;;17.50;7.97;;;;;;;9.98;100.00;101915.06;10559804;28;20050;-74
2024/01/29 20:13:26;;;;;;;12.05;5.40;;;;;;;10.08;100.00;101913.66;10569769;28;20042;-75
2024/01/29 20:18:48;;;;;;;6.55;3.75;;;;;;;10.24;100.00;101909.00;10562445;28;20040;-75
2024/01/29 20:24:11;;;;;;;7.50;4.25;;;;;;;10.42;93.43;101911.41;10527531;28;20056;-75
2024/01/29 20:29:35;;;;;;;8.38;4.63;;;;;;;10.73;83.59;101905.41;10530444;28;20039;-75
2024/01/29 20:34:57;;;;;;;5.45;2.78;;;;;;;10.63;79.25;101919.19;10573502;28;20089;-74
2024/01/29 20:40:20;;;;;;;6.07;3.50;;;;;;;9.41;100.00;101966.47;10557990;27;20069;-75
2024/01/29 20:45:45;;;;;;;8.23;4.95;;;;;;;8.75;100.00;101948.00;10539158;27;20720;-75
2024/01/29 20:51:07;;;;;;;17.63;9.85;;;;;;;8.79;100.00;101946.41;10577679;27;20051;-76
2024/01/29 20:56:30;;;;;;;14.00;7.93;;;;;;;9.01;100.00;101940.28;10587977;27;20047;-75
2024/01/29 21:01:54;;;;;;;7.72;3.45;;;;;;;9.18;100.00;101928.69;10587141;27;20518;-76
2024/01/29 21:07:16;;;;;;;7.43;5.32;;;;;;;9.63;100.00;101904.97;10611819;27;20058;-76
2024/01/29 21:12:40;;;;;;;10.10;3.92;;;;;;;9.99;100.00;101906.31;10601948;27;20039;-75
2024/01/29 21:18:07;;;;;;;8.98;3.55;;;;;;;10.08;100.00;101911.94;10585191;27;20050;-76
2024/01/29 21:23:29;;;;;;;6.32;3.00;;;;;;;10.15;100.00;101902.50;10586069;27;20403;-76
2024/01/29 21:28:52;;;;;;;6.50;2.60;;;;;;;10.31;100.00;101912.75;10601672;27;20050;-77
2024/01/29 21:34:16;;;;;;;7.00;2.58;;;;;;;10.41;98.72;101899.06;10587089;27;20507;-76
2024/01/29 21:39:38;;;;;;;5.75;3.40;;;;;;;10.56;93.21;101910.16;10587662;27;20563;-77
2024/01/29 21:45:01;;;;;;;6.35;2.50;;;;;;;10.59;90.35;101904.06;10599998;27;20077;-77
2024/01/29 21:50:25;;;;;;;10.20;3.45;;;;;;;10.73;84.60;101897.50;10616851;27;20055;-77
2024/01/29 21:55:47;;;;;;;22.63;10.20;;;;;;;10.69;95.27;101890.34;10621262;27;20078;-78
2024/01/29 22:01:10;;;;;;;4.00;2.30;;;;;;;10.78;95.34;101895.91;10632060;27;20490;-78
2024/01/29 22:06:34;;;;;;;8.93;2.80;;;;;;;10.96;79.82;101900.91;10609223;27;20051;-78
2024/01/29 22:11:57;;;;;;;4.47;2.47;;;;;;;11.06;84.89;101893.31;10616965;27;20038;-77
2024/01/29 22:17:19;;;;;;;5.22;2.08;;;;;;;11.01;80.92;101865.84;10629078;27;20051;-78
2024/01/29 22:22:43;;;;;;;3.90;1.90;;;;;;;10.93;63.52;101891.13;10651672;27;20047;-77
2024/01/29 22:28:07;;;;;;;9.75;3.50;;;;;;;10.87;70.70;101890.03;10615733;27;20057;-77
2024/01/29 22:33:29;;;;;;;6.07;1.88;;;;;;;11.02;75.62;101874.69;10630825;27;20108;-77
2024/01/29 22:38:55;;;;;;;8.00;3.15;;;;;;;11.25;67.75;101883.31;10580737;27;20119;-77
2024/01/29 22:44:19;;;;;;;9.00;3.35;;;;;;;11.35;77.00;101878.38;10596003;27;20078;-77
2024/01/29 22:49:42;;;;;;;7.43;3.53;;;;;;;11.18;85.99;101858.44;10612238;27;20047;-77
2024/01/29 22:55:07;;;;;;;11.40;4.10;;;;;;;11.09;86.06;101864.31;10601314;27;20055;-77
2024/01/29 23:00:32;;;;;;;10.82;3.80;;;;;;;10.90;95.13;101847.84;10630767;27;20047;-75
2024/01/29 23:05:55;;;;;;;6.07;2.50;;;;;;;9.84;100.00;101859.19;10613821;27;20631;-77
2024/01/29 23:11:19;;;;;;;14.10;4.13;;;;;;;9.95;100.00;101875.41;10635795;27;20066;-78
2024/01/29 23:16:42;;;;;;;7.65;3.15;;;;;;;10.11;100.00;101879.50;10629545;27;20047;-78
2024/01/29 23:22:04;;;;;;;9.45;3.35;;;;;;;10.27;100.00;101890.66;10648259;27;20103;-77
2024/01/29 23:27:29;;;;;;;3.35;2.25;;;;;;;10.59;94.73;101880.28;10614085;27;20058;-78
2024/01/29 23:32:51;;;;;;;5.60;3.22;;;;;;;10.61;85.46;101871.59;10607112;27;20093;-78
2024/01/29 23:38:14;;;;;;;8.23;3.03;;;;;;;10.40;100.00;101876.13;10613560;27;20050;-77
2024/01/29 23:43:38;;;;;;;10.00;2.90;;;;;;;10.51;100.00;101865.94;10612104;27;20046;-77
2024/01/29 23:49:00;;;;;;;6.50;2.50;;;;;;;10.44;100.00;101879.75;10619001;27;20053;-77
2024/01/29 23:54:23;;;;;;;6.45;2.13;;;;;;;10.18;100.00;101885.03;10622346;27;20414;-78
2024/01/29 23:59:47;;;;;;;7.60;3.00;;;;;;;10.24;100.00;101869.41;10605987;27;20084;-77
